Time;durP1;ratioP1;P1;durP2;ratioP2;P2;SDS_P1;SDS_P2;PMS_P1;PMS_P2;Temp;Humidity;BMP_temperature;BMP_pressure;BME280_temperature;BME280_humidity;BME280_pressure;Samples;Min_cycle;Max_cycle;Signal;HPM_P1;HPM_P2
2022/10/15 00:00:38;;;;;;;4.00;2.65;;;;;;;15.45;100.00;99802.44;8232910;28;20445;-53
2022/10/15 00:04:39;;;;;;;2.90;2.60;;;;;;;15.46;100.00;99800.53;8239269;28;20042;-50
2022/10/15 00:08:40;;;;;;;4.47;2.92;;;;;;;15.40;100.00;99799.44;8235207;28;20569;-51
2022/10/15 00:12:41;;;;;;;4.82;2.65;;;;;;;15.43;100.00;99809.94;8235055;28;20039;-50
2022/10/15 00:16:42;;;;;;;4.35;2.10;;;;;;;15.32;100.00;99799.50;8229220;28;20040;-50
2022/10/15 00:20:43;;;;;;;2.50;1.95;;;;;;;15.30;100.00;99792.53;8238123;28;20047;-51
2022/10/15 00:24:43;;;;;;;4.35;2.38;;;;;;;15.26;100.00;99781.22;8232423;28;20046;-50
2022/10/15 00:28:45;;;;;;;4.70;2.45;;;;;;;15.21;100.00;99774.59;8227787;28;20073;-52
2022/10/15 00:32:46;;;;;;;3.28;2.67;;;;;;;15.13;100.00;99770.09;8256173;28;20076;-50
2022/10/15 00:36:49;;;;;;;4.70;2.80;;;;;;;15.11;100.00;99772.19;8249209;28;20527;-53
2022/10/15 00:40:49;;;;;;;4.95;3.28;;;;;;;15.06;100.00;99758.28;8254426;28;20108;-52
2022/10/15 00:44:58;;;;;;;3.83;3.42;;;;;;;15.04;100.00;99765.78;8251458;28;20096;-51
2022/10/15 00:49:10;;;;;;;4.20;3.50;;;;;;;14.91;100.00;99768.31;8232975;28;20035;-50
2022/10/15 00:53:11;;;;;;;4.93;3.60;;;;;;;14.80;100.00;99774.22;8236470;28;20121;-52
2022/10/15 00:57:13;;;;;;;5.75;3.72;;;;;;;14.66;100.00;99783.22;8258228;28;20034;-53
2022/10/15 01:01:13;;;;;;;5.80;4.10;;;;;;;14.62;100.00;99787.34;8252449;28;20046;-52
2022/10/15 01:05:16;;;;;;;4.65;4.25;;;;;;;14.69;100.00;99780.13;8250348;28;20531;-50
2022/10/15 01:09:16;;;;;;;4.38;2.97;;;;;;;14.67;100.00;99793.03;8239638;28;20419;-50
2022/10/15 01:13:34;;;;;;;4.25;3.65;;;;;;;14.62;100.00;99784.63;8230205;28;20034;-51
2022/10/15 01:17:57;;;;;;;6.95;3.28;;;;;;;14.24;100.00;99782.88;8250525;28;20042;-52
2022/10/15 01:22:05;;;;;;;5.72;3.35;;;;;;;14.11;100.00;99776.31;8240890;28;20046;-49
2022/10/15 01:26:40;;;;;;;3.47;3.15;;;;;;;14.12;100.00;99773.44;8249507;28;20042;-52
2022/10/15 01:30:46;;;;;;;7.75;3.92;;;;;;;14.06;100.00;99760.56;8219392;28;20575;-49
2022/10/15 01:35:02;;;;;;;4.10;3.60;;;;;;;14.18;100.00;99777.31;8248017;28;20030;-51
2022/10/15 01:39:14;;;;;;;6.63;3.70;;;;;;;14.32;100.00;99777.41;8252786;28;20049;-52
2022/10/15 01:43:26;;;;;;;4.20;3.25;;;;;;;14.12;100.00;99784.28;8232370;28;20047;-49
2022/10/15 01:47:51;;;;;;;4.38;3.10;;;;;;;14.24;100.00;99787.50;8217794;28;20869;-50
2022/10/15 01:51:54;;;;;;;6.07;3.42;;;;;;;14.38;100.00;99781.25;8226690;28;20046;-51
2022/10/15 01:56:00;;;;;;;6.35;3.20;;;;;;;14.28;100.00;99781.50;8222116;28;20110;-50
2022/10/15 02:00:03;;;;;;;3.67;3.38;;;;;;;14.34;100.00;99774.50;8212181;28;20049;-54
2022/10/15 02:04:27;;;;;;;8.95;4.85;;;;;;;14.36;100.00;99758.84;8461112;27;20725;-50
2022/10/15 02:08:56;;;;;;;7.10;3.88;;;;;;;14.19;100.00;99760.81;8438785;28;20028;-50
2022/10/15 02:13:35;;;;;;;5.22;3.75;;;;;;;14.16;100.00;99769.34;8420314;28;20520;-49
2022/10/15 02:17:44;;;;;;;5.82;4.10;;;;;;;14.25;100.00;99767.44;8421254;28;20032;-49
2022/10/15 02:22:10;;;;;;;9.13;4.90;;;;;;;14.41;100.00;99779.00;8436138;28;20040;-50
2022/10/15 02:26:13;;;;;;;7.65;4.82;;;;;;;14.48;100.00;99774.53;8417549;28;20527;-50
2022/10/15 02:30:16;;;;;;;6.40;5.35;;;;;;;14.58;100.00;99769.66;8442982;28;20066;-50
2022/10/15 02:34:20;;;;;;;7.20;5.60;;;;;;;14.62;100.00;99760.13;8451266;28;20050;-52
2022/10/15 02:38:24;;;;;;;5.47;4.18;;;;;;;14.52;100.00;99759.53;8445525;28;20075;-53
2022/10/15 02:42:25;;;;;;;7.32;4.63;;;;;;;14.43;100.00;99768.81;8417319;28;20413;-53
2022/10/15 02:46:26;;;;;;;5.30;3.55;;;;;;;14.44;100.00;99766.91;8418876;28;20036;-50
2022/10/15 02:50:27;;;;;;;5.88;3.30;;;;;;;14.35;100.00;99768.00;8418557;28;20040;-48
2022/10/15 02:54:28;;;;;;;7.07;3.90;;;;;;;14.37;100.00;99771.41;8418857;28;20409;-48
2022/10/15 02:58:29;;;;;;;6.38;5.22;;;;;;;14.43;100.00;99757.94;8425172;28;20098;-49
2022/10/15 03:02:30;;;;;;;13.88;4.07;;;;;;;14.40;100.00;99771.91;8451114;28;20462;-48
2022/10/15 03:06:32;;;;;;;6.75;4.10;;;;;;;14.38;100.00;99757.63;8425719;28;20452;-50
2022/10/15 03:10:33;;;;;;;5.50;4.22;;;;;;;14.33;100.00;99749.16;8417424;28;20079;-49
2022/10/15 03:14:34;;;;;;;8.00;4.63;;;;;;;14.39;100.00;99756.59;8402441;28;20090;-47
2022/10/15 03:18:35;;;;;;;6.80;5.40;;;;;;;14.42;100.00;99748.06;8394692;28;20033;-51
2022/10/15 03:22:36;;;;;;;6.88;5.25;;;;;;;14.39;100.00;99748.44;8393503;28;20029;-49
2022/10/15 03:26:37;;;;;;;6.10;4.78;;;;;;;14.41;100.00;99757.25;8392895;28;20051;-49
2022/10/15 03:30:38;;;;;;;6.53;5.82;;;;;;;14.45;100.00;99758.56;8419201;28;20048;-48
2022/10/15 03:34:40;;;;;;;9.02;6.47;;;;;;;14.45;100.00;99752.31;8425777;28;20044;-48
2022/10/15 03:38:43;;;;;;;11.68;7.65;;;;;;;14.46;100.00;99754.84;8407208;28;20051;-47
2022/10/15 03:42:50;;;;;;;12.60;8.63;;;;;;;14.52;100.00;99754.09;8394153;28;20044;-47
2022/10/15 03:46:52;;;;;;;9.45;7.03;;;;;;;14.53;100.00;99744.91;8394747;28;20044;-48
2022/10/15 03:50:56;;;;;;;8.95;7.18;;;;;;;14.55;100.00;99755.59;8393537;28;20494;-47
2022/10/15 03:54:57;;;;;;;10.90;7.47;;;;;;;14.56;100.00;99765.44;8394712;28;20071;-48
2022/10/15 03:58:58;;;;;;;8.73;6.97;;;;;;;14.60;100.00;99767.63;8404621;28;20038;-47
2022/10/15 04:02:59;;;;;;;10.27;6.43;;;;;;;14.63;100.00;99767.25;8424927;28;20032;-49
2022/10/15 04:07:02;;;;;;;6.95;5.72;;;;;;;14.60;100.00;99764.91;8397355;28;20120;-48
2022/10/15 04:11:04;;;;;;;6.68;5.60;;;;;;;14.63;100.00;99767.25;8393549;28;20033;-49
2022/10/15 04:15:06;;;;;;;8.50;5.30;;;;;;;14.65;100.00;99756.19;8393096;28;20059;-47
2022/10/15 04:19:07;;;;;;;6.50;5.75;;;;;;;14.63;100.00;99750.94;8393667;28;20505;-47
2022/10/15 04:23:09;;;;;;;8.45;5.50;;;;;;;14.58;100.00;99731.59;8393730;28;20419;-48
2022/10/15 04:27:12;;;;;;;13.05;7.20;;;;;;;14.49;100.00;99732.69;8385273;28;20594;-49
2022/10/15 04:31:13;;;;;;;6.45;5.30;;;;;;;14.40;100.00;99725.66;8403005;28;20566;-47
2022/10/15 04:35:14;;;;;;;7.00;5.97;;;;;;;14.33;100.00;99743.72;8391811;28;20063;-48
2022/10/15 04:39:34;;;;;;;7.13;6.05;;;;;;;14.18;100.00;99744.69;8391467;28;20037;-47
2022/10/15 04:43:37;;;;;;;10.82;6.68;;;;;;;14.31;100.00;99758.53;8390383;28;20075;-48
2022/10/15 04:47:41;;;;;;;11.15;6.82;;;;;;;14.39;100.00;99764.75;8390495;28;20049;-48
2022/10/15 04:51:45;;;;;;;9.15;6.85;;;;;;;14.51;100.00;99756.97;8375429;28;20037;-48
2022/10/15 04:55:50;;;;;;;7.18;5.82;;;;;;;14.56;100.00;99760.88;8391721;28;20039;-47
2022/10/15 04:59:52;;;;;;;10.70;6.00;;;;;;;14.58;100.00;99760.69;8405735;28;20044;-47
2022/10/15 05:04:03;;;;;;;6.72;5.65;;;;;;;14.59;100.00;99771.38;8392301;28;20110;-48
2022/10/15 05:08:04;;;;;;;6.15;5.45;;;;;;;14.56;100.00;99763.59;8384690;28;20110;-48
2022/10/15 05:12:14;;;;;;;9.48;5.40;;;;;;;14.46;100.00;99763.00;8396529;28;20044;-48
2022/10/15 05:16:18;;;;;;;6.63;5.10;;;;;;;14.40;100.00;99760.16;8389358;28;20032;-49
2022/10/15 05:20:19;;;;;;;8.98;5.57;;;;;;;14.28;100.00;99751.59;8391413;28;20029;-49
2022/10/15 05:24:20;;;;;;;11.25;7.90;;;;;;;14.21;100.00;99756.03;8390636;28;20063;-49
2022/10/15 05:28:29;;;;;;;10.10;6.47;;;;;;;13.97;100.00;99741.78;8398396;28;20051;-49
2022/10/15 05:32:30;;;;;;;9.20;6.60;;;;;;;13.84;100.00;99748.66;8391954;28;20516;-48
2022/10/15 05:36:32;;;;;;;11.50;7.35;;;;;;;13.75;100.00;99748.88;8386878;28;20398;-48
2022/10/15 05:40:33;;;;;;;13.07;7.22;;;;;;;13.79;100.00;99761.94;8389561;28;20033;-48
2022/10/15 05:44:39;;;;;;;11.98;7.95;;;;;;;13.62;100.00;99754.06;8392093;28;20064;-47
2022/10/15 05:48:39;;;;;;;10.38;8.75;;;;;;;13.55;100.00;99753.09;8387428;28;20041;-47
2022/10/15 05:52:41;;;;;;;11.57;8.60;;;;;;;13.55;100.00;99744.97;8377742;28;20094;-48
2022/10/15 05:56:49;;;;;;;15.68;8.70;;;;;;;13.44;100.00;99753.50;8366609;28;20115;-48
2022/10/15 06:00:59;;;;;;;8.35;6.93;;;;;;;13.42;100.00;99764.53;8406248;28;20513;-48
2022/10/15 06:04:59;;;;;;;10.25;6.47;;;;;;;13.30;100.00;99765.94;8383694;28;20049;-47
2022/10/15 06:09:00;;;;;;;10.32;6.97;;;;;;;13.33;100.00;99770.19;8388438;28;20514;-48
2022/10/15 06:13:01;;;;;;;14.95;8.07;;;;;;;13.25;100.00;99764.78;8385284;28;20041;-48
2022/10/15 06:17:02;;;;;;;9.82;6.03;;;;;;;13.29;100.00;99779.69;8382372;28;20037;-50
2022/10/15 06:21:02;;;;;;;11.70;6.13;;;;;;;13.25;100.00;99762.06;8389597;28;20135;-48
2022/10/15 06:25:04;;;;;;;11.85;5.75;;;;;;;13.27;100.00;99768.19;8381522;28;20049;-49
2022/10/15 06:29:04;;;;;;;8.20;5.82;;;;;;;13.33;100.00;99781.06;8383837;28;20451;-48
2022/10/15 06:33:05;;;;;;;6.57;5.22;;;;;;;13.42;100.00;99772.66;8388790;28;20033;-49
2022/10/15 06:37:07;;;;;;;9.20;5.18;;;;;;;13.61;100.00;99763.25;8379239;28;20052;-50
2022/10/15 06:41:07;;;;;;;5.82;5.15;;;;;;;13.79;100.00;99771.97;8382639;28;20036;-47
2022/10/15 06:45:09;;;;;;;9.18;4.90;;;;;;;13.94;100.00;99780.19;8383315;28;20047;-48
2022/10/15 06:49:10;;;;;;;6.97;4.68;;;;;;;13.98;100.00;99776.94;8386148;28;20036;-47
2022/10/15 06:53:16;;;;;;;6.32;4.50;;;;;;;14.05;100.00;99782.47;8390619;28;20391;-48
2022/10/15 06:57:17;;;;;;;8.30;4.65;;;;;;;14.07;100.00;99770.44;8387847;28;20115;-47
2022/10/15 07:01:18;;;;;;;6.47;4.50;;;;;;;14.09;100.00;99765.63;8385682;28;20043;-47
2022/10/15 07:05:19;;;;;;;5.70;4.05;;;;;;;14.12;100.00;99770.72;8391646;28;20052;-48
2022/10/15 07:09:20;;;;;;;5.40;3.50;;;;;;;14.23;100.00;99781.19;8397822;28;20516;-49
2022/10/15 07:13:20;;;;;;;5.32;3.75;;;;;;;14.33;100.00;99791.84;8394850;28;20379;-47
2022/10/15 07:17:21;;;;;;;4.13;3.20;;;;;;;14.46;100.00;99790.19;8389889;28;20051;-51
2022/10/15 07:21:22;;;;;;;6.32;3.67;;;;;;;14.61;100.00;99785.63;8381669;28;20045;-48
2022/10/15 07:25:22;;;;;;;4.03;3.15;;;;;;;14.80;100.00;99790.56;8384555;28;20387;-47
2022/10/15 07:29:23;;;;;;;8.70;2.85;;;;;;;14.93;100.00;99774.44;8388772;28;20038;-48
2022/10/15 07:33:23;;;;;;;3.97;2.53;;;;;;;15.10;100.00;99775.09;8371451;28;20044;-49
2022/10/15 07:37:32;;;;;;;2.58;2.38;;;;;;;15.20;100.00;99776.50;8387110;28;20059;-48
2022/10/15 07:41:33;;;;;;;3.72;2.50;;;;;;;15.30;100.00;99779.78;8389874;28;20036;-48
2022/10/15 07:45:34;;;;;;;2.22;2.10;;;;;;;15.39;100.00;99775.97;8388172;28;20056;-48
2022/10/15 07:49:35;;;;;;;1.70;1.60;;;;;;;15.50;100.00;99761.84;8382406;28;20032;-48
2022/10/15 07:53:36;;;;;;;1.90;1.80;;;;;;;15.53;100.00;99761.47;8385548;28;20040;-49
2022/10/15 07:57:37;;;;;;;4.10;3.80;;;;;;;15.65;100.00;99759.94;8381743;28;20044;-48
2022/10/15 08:01:38;;;;;;;2.42;2.22;;;;;;;15.80;100.00;99748.16;8388081;28;20043;-49
2022/10/15 08:05:39;;;;;;;7.13;6.53;;;;;;;15.90;100.00;99751.41;8387606;28;20048;-48
2022/10/15 08:09:39;;;;;;;6.13;3.95;;;;;;;16.05;100.00;99754.94;8392319;28;20378;-48
2022/10/15 08:13:41;;;;;;;3.42;2.30;;;;;;;16.12;100.00;99744.94;8392120;28;20068;-48
2022/10/15 08:17:41;;;;;;;2.42;2.13;;;;;;;16.21;100.00;99741.03;8391054;28;20108;-48
2022/10/15 08:21:44;;;;;;;1.40;1.30;;;;;;;16.30;100.00;99737.13;8374291;28;20044;-48
2022/10/15 08:25:44;;;;;;;2.13;1.20;;;;;;;16.45;100.00;99736.06;8392362;28;20178;-49
2022/10/15 08:29:46;;;;;;;2.47;1.30;;;;;;;16.62;100.00;99728.44;8411776;28;20046;-49
2022/10/15 08:33:46;;;;;;;1.10;1.00;;;;;;;16.76;100.00;99727.47;8422704;28;20461;-48
2022/10/15 08:37:47;;;;;;;1.63;1.08;;;;;;;16.90;100.00;99724.63;8389307;28;20090;-48
2022/10/15 08:41:52;;;;;;;1.15;0.57;;;;;;;17.08;100.00;99726.84;8390906;28;20040;-48
2022/10/15 08:45:58;;;;;;;1.20;0.60;;;;;;;17.18;100.00;99714.50;8398274;28;20436;-49
2022/10/15 08:50:02;;;;;;;0.93;0.50;;;;;;;17.20;100.00;99712.41;8421747;28;20040;-48
2022/10/15 08:54:12;;;;;;;1.10;0.57;;;;;;;17.27;100.00;99720.63;8424323;28;20032;-48
2022/10/15 08:58:46;;;;;;;1.33;0.70;;;;;;;17.35;100.00;99714.97;8417426;28;20043;-49
2022/10/15 09:02:53;;;;;;;2.85;0.65;;;;;;;17.62;100.00;99708.63;8423241;28;20093;-49
2022/10/15 09:07:05;;;;;;;1.45;0.60;;;;;;;17.73;100.00;99720.84;8396189;28;20051;-49
2022/10/15 09:11:16;;;;;;;0.82;0.50;;;;;;;17.80;100.00;99716.22;8390411;28;20049;-52
2022/10/15 09:15:20;;;;;;;0.80;0.60;;;;;;;17.88;100.00;99725.09;8380413;28;20083;-52
2022/10/15 09:19:24;;;;;;;1.13;0.60;;;;;;;18.10;100.00;99734.81;8392142;28;20032;-49
2022/10/15 09:23:29;;;;;;;0.77;0.50;;;;;;;18.13;100.00;99720.72;8390844;28;20058;-49
2022/10/15 09:27:31;;;;;;;;;;;;;;;18.01;100.00;99730.59;8388718;28;20094;-50
2022/10/15 09:32:00;;;;;;;0.40;0.40;;;;;;;18.02;100.00;99710.41;8407450;28;20401;-52
2022/10/15 09:36:29;;;;;;;0.55;0.30;;;;;;;18.62;100.00;99707.53;8387931;28;20041;-50
2022/10/15 09:45:10;;;;;;;2.97;0.50;;;;;;;18.07;100.00;99707.88;8428745;27;20874;-48
2022/10/15 09:49:17;;;;;;;0.65;0.47;;;;;;;17.68;100.00;99693.31;8407324;28;20051;-52
2022/10/15 09:53:51;;;;;;;0.90;0.57;;;;;;;17.68;100.00;99690.56;8398619;28;20131;-50
2022/10/15 09:57:55;;;;;;;0.82;0.60;;;;;;;17.82;100.00;99693.13;8416000;28;20277;-48
2022/10/15 10:06:26;;;;;;;1.90;0.50;;;;;;;18.98;100.00;99680.50;8452442;27;20405;-48
2022/10/15 10:10:29;;;;;;;1.23;0.50;;;;;;;19.57;100.00;99665.75;8408511;28;20275;-49
2022/10/15 10:14:34;;;;;;;1.40;0.30;;;;;;;20.03;100.00;99669.06;8413347;28;20032;-48
2022/10/15 10:18:37;;;;;;;0.47;0.32;;;;;;;20.10;95.65;99667.09;8409652;28;20438;-49
2022/10/15 10:22:46;;;;;;;0.10;0.10;;;;;;;19.97;96.95;99665.28;8417102;28;20074;-49
2022/10/15 10:26:47;;;;;;;2.40;0.25;;;;;;;20.03;97.52;99677.28;8411483;28;20694;-49
2022/10/15 10:35:20;;;;;;;0.20;0.10;;;;;;;20.25;95.71;99678.63;8449784;27;20121;-48
2022/10/15 10:39:29;;;;;;;;;;;;;;;20.42;94.88;99674.25;8420195;28;20048;-48
2022/10/15 10:43:31;;;;;;;0.10;0.10;;;;;;;20.70;91.06;99671.88;8417648;28;19916;-49
2022/10/15 10:47:37;;;;;;;0.85;0.10;;;;;;;21.06;89.15;99677.44;8415147;28;20078;-48
2022/10/15 10:51:48;;;;;;;6.15;0.63;;;;;;;21.20;88.84;99674.31;8397389;28;20048;-49
2022/10/15 10:55:51;;;;;;;0.10;0.10;;;;;;;21.07;88.14;99679.13;8409270;28;20520;-49
2022/10/15 11:00:02;;;;;;;0.98;0.17;;;;;;;20.97;89.62;99665.91;8405037;28;20048;-50
2022/10/15 11:04:03;;;;;;;1.38;0.35;;;;;;;20.93;89.23;99672.91;8413900;28;20040;-48
2022/10/15 11:13:02;;;;;;;6.60;1.05;;;;;;;21.13;87.65;99662.56;8456312;27;20913;-52
2022/10/15 11:17:22;;;;;;;0.43;0.17;;;;;;;21.17;87.57;99646.44;8445282;28;20089;-48
2022/10/15 11:22:03;;;;;;;5.63;0.55;;;;;;;21.14;87.70;99674.41;8447993;28;20075;-48
2022/10/15 11:26:29;;;;;;;2.90;0.52;;;;;;;21.10;87.91;99651.16;8447532;28;20044;-48
2022/10/15 11:39:36;;;;;;;0.10;0.10;;;;;;;21.11;88.13;99661.13;8354979;27;20392;-48
2022/10/15 11:44:17;;;;;;;0.10;0.10;;;;;;;21.31;86.70;99661.69;8346704;28;20048;-48
2022/10/15 11:48:31;;;;;;;0.10;0.10;;;;;;;21.70;85.99;99669.44;8312550;28;20088;-49
2022/10/15 11:52:51;;;;;;;;;;;;;;;21.81;85.47;99654.09;8331572;28;20045;-49
2022/10/15 11:56:56;;;;;;;3.03;0.10;;;;;;;21.76;86.79;99648.44;8346300;28;20429;-50
2022/10/15 12:01:05;;;;;;;3.33;0.20;;;;;;;21.62;85.93;99645.00;8349005;28;20045;-48
2022/10/15 12:05:15;;;;;;;1.45;0.20;;;;;;;21.75;86.79;99639.34;8337196;28;20048;-48
2022/10/15 12:09:26;;;;;;;0.35;0.10;;;;;;;21.74;85.09;99632.16;8341291;28;21273;-52
2022/10/15 12:13:53;;;;;;;0.65;0.10;;;;;;;21.58;86.21;99632.78;8348673;28;20037;-49
2022/10/15 12:18:08;;;;;;;0.35;0.10;;;;;;;21.50;85.97;99630.34;8331607;28;20091;-49
2022/10/15 12:22:10;;;;;;;0.22;0.22;;;;;;;21.40;86.69;99612.75;8331683;28;20223;-49
2022/10/15 12:26:33;;;;;;;0.57;0.20;;;;;;;21.26;88.68;99628.56;8345500;28;20047;-52
2022/10/15 12:30:36;;;;;;;0.38;0.20;;;;;;;21.09;90.91;99622.00;8343352;28;20041;-51
2022/10/15 12:34:40;;;;;;;0.32;0.10;;;;;;;21.22;91.49;99621.84;8342092;28;20052;-48
2022/10/15 12:38:55;;;;;;;0.93;0.20;;;;;;;21.29;92.70;99623.44;8347618;28;20048;-50
2022/10/15 12:43:02;;;;;;;0.63;0.50;;;;;;;21.52;90.02;99617.22;8346532;28;20041;-50
2022/10/15 12:47:09;;;;;;;2.25;0.77;;;;;;;21.89;87.07;99607.78;8327898;28;20034;-49
2022/10/15 12:55:38;;;;;;;0.08;0.08;;;;;;;21.84;86.08;99615.94;8440022;27;20541;-48
2022/10/15 13:03:55;;;;;;;0.50;0.30;;;;;;;21.79;86.93;99607.53;8424900;27;20122;-50
2022/10/15 13:07:58;;;;;;;0.10;0.10;;;;;;;21.70;86.84;99603.41;8390539;28;20861;-48
2022/10/15 13:12:01;;;;;;;1.85;0.20;;;;;;;21.65;88.13;99603.25;8375389;28;20382;-49
2022/10/15 13:16:07;;;;;;;0.10;0.10;;;;;;;21.61;87.01;99591.06;8413112;28;20040;-49
2022/10/15 13:20:40;;;;;;;5.18;1.13;;;;;;;21.49;89.30;99603.91;8377826;28;20051;-48
2022/10/15 13:24:44;;;;;;;0.35;0.15;;;;;;;21.52;88.00;99597.94;8375002;28;20052;-49
2022/10/15 13:28:51;;;;;;;1.40;0.10;;;;;;;21.69;87.30;99606.38;8365505;28;20045;-49
2022/10/15 13:32:54;;;;;;;0.20;0.10;;;;;;;21.53;87.13;99607.06;8382369;28;20595;-49
2022/10/15 13:36:58;;;;;;;0.22;0.20;;;;;;;21.48;87.52;99602.25;8369746;28;20112;-50
2022/10/15 13:40:59;;;;;;;0.43;0.28;;;;;;;21.51;87.93;99610.03;8371174;28;20339;-50
2022/10/15 13:45:17;;;;;;;0.20;0.20;;;;;;;21.61;89.54;99610.31;8363763;28;20064;-49
2022/10/15 13:49:18;;;;;;;1.17;0.30;;;;;;;21.46;91.08;99609.88;8371434;28;20120;-50
2022/10/15 13:53:39;;;;;;;0.05;0.05;;;;;;;21.51;88.59;99609.19;8375122;28;20044;-49
2022/10/15 13:57:44;;;;;;;1.75;0.10;;;;;;;21.65;87.50;99605.19;8356044;28;20036;-51
2022/10/15 14:01:52;;;;;;;0.22;0.10;;;;;;;21.72;85.94;99612.28;8364859;28;20036;-49
2022/10/15 14:05:55;;;;;;;0.15;0.15;;;;;;;21.85;85.29;99606.59;8370475;28;20426;-49
2022/10/15 14:09:56;;;;;;;0.13;0.05;;;;;;;22.08;85.46;99614.88;8376600;28;20043;-49
2022/10/15 14:13:58;;;;;;;0.63;0.20;;;;;;;22.03;84.87;99614.78;8357183;28;20411;-50
2022/10/15 14:17:58;;;;;;;0.10;0.10;;;;;;;21.83;84.03;99605.97;8350265;28;20273;-51
2022/10/15 14:21:59;;;;;;;0.55;0.20;;;;;;;21.94;85.15;99610.69;8350462;28;20143;-48
2022/10/15 14:26:02;;;;;;;0.60;0.20;;;;;;;22.01;85.77;99627.94;8328796;28;20038;-48
2022/10/15 14:30:13;;;;;;;2.97;0.60;;;;;;;22.02;84.98;99628.78;8341740;28;20217;-49
2022/10/15 14:34:29;;;;;;;6.05;1.80;;;;;;;22.08;83.54;99628.66;8354784;28;20849;-51
2022/10/15 14:38:31;;;;;;;1.10;0.30;;;;;;;22.01;82.47;99638.09;8353957;28;20045;-50
2022/10/15 14:42:32;;;;;;;1.10;0.20;;;;;;;21.93;82.95;99621.94;8347740;28;20406;-51
2022/10/15 14:46:41;;;;;;;0.47;0.20;;;;;;;21.93;82.57;99636.56;8343812;28;20037;-52
2022/10/15 14:50:43;;;;;;;0.25;0.22;;;;;;;21.83;82.34;99640.94;8374151;28;20060;-49
2022/10/15 14:54:54;;;;;;;0.20;0.20;;;;;;;21.68;83.11;99665.25;8349009;28;20615;-49
2022/10/15 14:58:56;;;;;;;5.18;0.77;;;;;;;20.32;91.71;99706.84;8373798;28;20063;-49
2022/10/15 15:02:59;;;;;;;3.38;0.50;;;;;;;18.88;100.00;99691.03;8340511;28;20044;-49
2022/10/15 15:06:59;;;;;;;1.33;0.30;;;;;;;18.39;100.00;99696.16;8335092;28;20198;-52
2022/10/15 15:11:03;;;;;;;3.55;0.50;;;;;;;18.33;100.00;99702.41;8351913;28;20175;-50
2022/10/15 15:15:12;;;;;;;2.05;0.50;;;;;;;18.22;100.00;99714.00;8345819;28;20040;-49
2022/10/15 15:19:12;;;;;;;1.05;0.90;;;;;;;18.15;100.00;99710.44;8346722;28;20033;-49
2022/10/15 15:23:19;;;;;;;1.83;0.60;;;;;;;18.22;100.00;99722.22;8339706;28;20049;-49
2022/10/15 15:27:27;;;;;;;3.05;0.70;;;;;;;18.21;100.00;99731.47;8352425;28;20044;-48
2022/10/15 15:31:31;;;;;;;2.78;0.70;;;;;;;18.05;100.00;99736.50;8384239;28;20041;-48
2022/10/15 15:35:38;;;;;;;;;;;;;;;17.94;100.00;99748.91;8382269;28;20485;-51
2022/10/15 15:39:39;;;;;;;2.97;0.70;;;;;;;17.79;100.00;99745.47;8354178;28;19916;-48
2022/10/15 15:43:41;;;;;;;3.53;0.90;;;;;;;17.80;100.00;99754.50;8349401;28;20040;-50
2022/10/15 15:47:41;;;;;;;1.63;0.90;;;;;;;17.82;100.00;99753.28;8351017;28;20111;-49
2022/10/15 15:51:42;;;;;;;3.92;0.77;;;;;;;17.85;100.00;99762.94;8349791;28;20335;-52
2022/10/15 15:55:43;;;;;;;9.07;3.50;;;;;;;17.81;100.00;99757.03;8357089;28;20124;-50
2022/10/15 15:59:43;;;;;;;3.42;1.25;;;;;;;17.79;100.00;99761.88;8366916;28;20113;-48
2022/10/15 16:03:44;;;;;;;1.20;0.70;;;;;;;17.83;100.00;99770.50;8362465;28;20379;-49
2022/10/15 16:07:45;;;;;;;1.77;0.50;;;;;;;17.84;100.00;99788.63;8383972;28;20044;-48
2022/10/15 16:11:46;;;;;;;5.30;0.70;;;;;;;17.88;100.00;99790.75;8353023;28;20024;-49
2022/10/15 16:15:46;;;;;;;4.57;0.80;;;;;;;17.88;100.00;99789.88;8383557;28;20121;-49
2022/10/15 16:19:47;;;;;;;1.20;0.70;;;;;;;17.85;100.00;99791.16;8384578;28;20036;-48
2022/10/15 16:23:48;;;;;;;3.53;0.75;;;;;;;17.72;100.00;99791.09;8342544;28;20040;-48
2022/10/15 16:27:50;;;;;;;2.15;0.90;;;;;;;17.55;100.00;99801.53;8348614;28;20037;-49
2022/10/15 16:31:51;;;;;;;1.23;0.75;;;;;;;17.42;100.00;99800.59;8341344;28;20048;-49
2022/10/15 16:35:52;;;;;;;2.53;0.60;;;;;;;17.29;100.00;99803.22;8348355;28;20250;-49
2022/10/15 16:39:53;;;;;;;2.83;0.73;;;;;;;17.26;100.00;99817.31;8345903;28;20029;-48
2022/10/15 16:43:54;;;;;;;1.83;0.80;;;;;;;17.18;100.00;99820.19;8343717;28;20043;-48
2022/10/15 16:47:54;;;;;;;3.70;1.10;;;;;;;17.06;100.00;99825.38;8341557;28;20041;-51
2022/10/15 16:51:55;;;;;;;1.17;0.70;;;;;;;17.01;100.00;99836.03;8337723;28;20203;-49
2022/10/15 16:56:01;;;;;;;6.07;1.15;;;;;;;17.02;100.00;99847.81;8351328;28;20114;-49
2022/10/15 17:00:03;;;;;;;2.38;1.00;;;;;;;17.03;100.00;99855.81;8335541;28;20033;-50
2022/10/15 17:04:03;;;;;;;2.97;1.45;;;;;;;17.00;100.00;99858.09;8347061;28;20048;-49
2022/10/15 17:08:04;;;;;;;3.70;1.50;;;;;;;16.88;100.00;99851.47;8345220;28;20123;-49
2022/10/15 17:12:05;;;;;;;3.38;1.15;;;;;;;16.83;100.00;99865.72;8344884;28;20036;-50
2022/10/15 17:16:08;;;;;;;2.30;1.10;;;;;;;16.82;100.00;99869.50;8345804;28;20504;-49
2022/10/15 17:20:10;;;;;;;2.55;1.27;;;;;;;16.84;100.00;99889.22;8345662;28;20037;-51
2022/10/15 17:24:12;;;;;;;5.15;0.85;;;;;;;16.77;100.00;99892.97;8351059;28;20051;-50
2022/10/15 17:28:13;;;;;;;1.70;0.73;;;;;;;16.72;100.00;99906.34;8336650;28;20068;-50
2022/10/15 17:32:13;;;;;;;2.53;0.80;;;;;;;16.75;100.00;99922.34;8349229;28;20040;-49
2022/10/15 17:36:17;;;;;;;2.40;1.30;;;;;;;16.78;100.00;99935.59;8341498;28;20052;-49
2022/10/15 17:40:18;;;;;;;2.43;0.93;;;;;;;16.75;100.00;99941.44;8336643;28;20038;-49
2022/10/15 17:44:19;;;;;;;4.32;1.38;;;;;;;16.73;100.00;99938.06;8343362;28;20048;-48
2022/10/15 17:48:20;;;;;;;2.38;1.25;;;;;;;16.70;100.00;99935.72;8346756;28;20582;-49
2022/10/15 17:52:20;;;;;;;4.35;1.65;;;;;;;16.61;100.00;99921.34;8356877;28;20063;-48
2022/10/15 17:56:25;;;;;;;2.50;1.30;;;;;;;16.54;100.00;99930.50;8351614;28;20526;-49
2022/10/15 18:00:29;;;;;;;7.35;2.10;;;;;;;16.45;100.00;99937.97;8346472;28;20044;-49
2022/10/15 18:04:30;;;;;;;3.42;2.00;;;;;;;16.36;100.00;99955.44;8349277;28;20072;-49
2022/10/15 18:08:30;;;;;;;3.47;1.90;;;;;;;16.34;100.00;99967.56;8349622;28;20584;-49
2022/10/15 18:12:31;;;;;;;4.22;2.30;;;;;;;16.27;100.00;99953.00;8335613;28;20051;-49
2022/10/15 18:16:32;;;;;;;2.85;1.98;;;;;;;16.15;100.00;99963.56;8355328;28;20040;-48
2022/10/15 18:20:32;;;;;;;3.50;2.38;;;;;;;16.13;100.00;99956.63;8356514;28;20035;-49
2022/10/15 18:24:33;;;;;;;7.30;2.15;;;;;;;16.12;100.00;99968.53;8342880;28;20530;-49
2022/10/15 18:28:41;;;;;;;3.40;1.80;;;;;;;16.17;100.00;99960.66;8347342;28;20044;-50
2022/10/15 18:32:41;;;;;;;2.15;1.65;;;;;;;16.18;100.00;99957.75;8364003;28;20033;-49
2022/10/15 18:36:42;;;;;;;3.70;1.58;;;;;;;16.15;100.00;99958.13;8349873;28;20076;-49
2022/10/15 18:40:43;;;;;;;1.90;1.65;;;;;;;16.13;100.00;99953.91;8365031;28;20033;-50
2022/10/15 18:44:43;;;;;;;3.83;2.17;;;;;;;16.10;100.00;99981.56;8361608;28;20045;-48
2022/10/15 18:48:44;;;;;;;2.88;1.90;;;;;;;15.95;100.00;99970.63;8347706;28;20071;-49
2022/10/15 18:52:45;;;;;;;4.68;1.90;;;;;;;15.96;100.00;99974.19;8351354;28;20048;-49
2022/10/15 18:56:45;;;;;;;4.28;2.08;;;;;;;15.89;100.00;99965.09;8356327;28;20482;-48
2022/10/15 19:00:46;;;;;;;9.30;6.63;;;;;;;15.65;100.00;99958.88;8351004;28;20041;-50
2022/10/15 19:04:46;;;;;;;6.03;5.03;;;;;;;15.51;100.00;99972.47;8349090;28;20045;-48
2022/10/15 19:08:48;;;;;;;5.35;3.00;;;;;;;15.47;100.00;99974.72;8353213;28;20060;-49
2022/10/15 19:12:49;;;;;;;3.35;2.17;;;;;;;15.51;100.00;100000.56;8349093;28;20060;-50
2022/10/15 19:16:50;;;;;;;2.78;2.15;;;;;;;15.43;100.00;100011.53;8348112;28;20037;-49
2022/10/15 19:20:51;;;;;;;3.35;1.83;;;;;;;15.44;100.00;99996.88;8350355;28;20049;-49
2022/10/15 19:24:52;;;;;;;3.50;2.55;;;;;;;15.48;100.00;99987.31;8355387;28;20041;-49
2022/10/15 19:28:52;;;;;;;8.32;2.33;;;;;;;15.43;100.00;99989.75;8359683;28;20041;-52
2022/10/15 19:32:53;;;;;;;3.80;2.38;;;;;;;15.09;100.00;99988.47;8338062;28;20041;-48
2022/10/15 19:36:53;;;;;;;5.00;2.90;;;;;;;14.90;100.00;99999.84;8344238;28;20037;-49